NCAR-RAP Real-Time Weather Data

Output produced by METARs form (26 May 2022  08:46 UTC)
found at http://weather.rap.ucar.edu/surface/
 
KBTR 260753Z AUTO 10SM FEW023 BKN030 23/21 A2992 RMK AO2 SLP130 T02280211
KBTR 260653Z AUTO 18006KT 10SM SCT027 BKN034 23/21 A2992 RMK AO2 SLP131 T02280206
KBTR 260553Z AUTO 17008KT 10SM CLR 22/20 A2992 RMK AO2 SLP130 T02220200 10233 20217 402670211 50012
KBTR 260453Z AUTO 19005KT 10SM CLR 22/20 A2992 RMK AO2 SLP131 T02170200
KBTR 260353Z AUTO 16003KT 10SM CLR 22/20 A2991 RMK AO2 SLP126 T02170200
KBTR 260253Z 16004KT 10SM CLR 22/20 A2988 RMK AO2 SLP118 T02220200 53012
KBTR 260153Z 15005KT 10SM CLR 22/21 A2986 RMK AO2 SLP112 T02220206
KBTR 260053Z 12003KT 10SM CLR 23/20 A2986 RMK AO2 SLP109 T02280200
KBTR 252353Z 08003KT 10SM CLR 23/20 A2985 RMK AO2 SLP106 60003 T02330200 10244 20217 55005
KBTR 252253Z 07006KT 10SM CLR 24/20 A2984 RMK AO2 SLP102 T02390200
KBTR 252153Z 10005KT 10SM CLR 24/20 A2985 RMK AO2 SLP106 T02390200
KBTR 252053Z 12005KT 10SM SCT110 24/20 A2986 RMK AO2 SLP111 60003 T02440200 50013
KBTR 251953Z 14005KT 10SM CLR 23/20 A2987 RMK AO2 RAE17 SLP112 P0000 T02280200
KBTR 251853Z VRB03KT 10SM -RA BKN110 22/19 A2982 RMK AO2 PK WND 17031/1823 TSE24 SLP097 P0003 T02170194
KBTR 251845Z 16009KT 10SM -RA OVC110 22/19 A2982 RMK AO2 PK WND 17031/1823 LTG DSNT SE TSE24 P0003 T02170189
KBTR 251838Z 18013G26KT 10SM VCTS RA FEW095 BKN110 22/19 A2982 RMK AO2 PK WND 17031/1823 LTG DSNT SE TSE24 P0002 T02170189
KBTR 251830Z COR 18020G31KT 6SM VCTS RA FEW070 BKN110 22/19 A2982 RMK AO2 PK WND 17031/1823 LTG DSNT S TSE24 PRESRR P0001 T02170189
KBTR 251753Z 15015G21KT 10SM -RA FEW060 BKN120 23/19 A2982 RMK AO2 RAB39 PRESFR SLP098 P0000 60022 T02330194 10267 20211 58022
KBTR 251653Z 13007KT 10SM FEW120 24/21 A2985 RMK AO2 LTG DSNT SE RAB1556E18 SLP108 P0000 T02390211
KBTR 251553Z 11004KT 10SM FEW060 SCT095 BKN110 22/21 A2987 RMK AO2 LTG DSNT E AND SE RAE19 TSE05B07E19 SLP115 P0000 T02220206
KBTR 251525Z 23003KT 10SM FEW070 22/20 A2989 RMK AO2 LTG DSNT N-SE RAE19 TSE05B07E19 P0000 T02170200
KBTR 251453Z 26011G19KT 3SM -TSRA BR FEW011 BKN032 OVC075 21/19 A2989 RMK AO2 PK WND 26038/1431 WSHFT 1426 LTG DSNT ALQDS RAE03B28 TSB04E19B21E35B37 SLP120 P0022 60022 T02110194 53011
KBTR 251445Z 24006G15KT 2SM TSRA BR SCT014 BKN024 BKN033 21/19 A2989 RMK AO2 PK WND 26038/1431 WSHFT 1426 VIS 3/4V5 LTG DSNT ALQDS RAE03B28 TSB04E19B21E35B37 P0019 T02110194
KBTR 251440Z 22011G38KT 3/4SM -TSRA BR FEW012 BKN021 BKN030 21/19 A2990 RMK AO2 PK WND 26038/1431 WSHFT 1426 VIS 1/4V5 LTG DSNT ALQDS RAE03B28 TSB04E19B21E35B37 PRESRR P0016 T02110194 RVRNO
KBTR 251437Z 23012G38KT 1SM TSRA SQ FEW014 BKN021 BKN032 21/19 A2990 RMK AO2 PK WND 26038/1431 LTG DSNT ALQDS RAE03B28 TSB04E19B21E35B37 PRESRR P0005 T02110194 RVRNO
KBTR 251435Z 23017G38KT 1SM VCTS RA SQ SCT019 BKN032 BKN047 22/20 A2989 RMK AO2 PK WND 26038/1431 LTG DSNT ALQDS RAE03B28 TSB04E19B21E35 PRESRR P0001 T02220200 RVRNO
KBTR 251432Z 25030G38KT 1SM TSRA SQ SCT020 BKN037 OVC080 25/22 A2989 RMK AO2 PK WND 26038/1431 LTG DSNT ALQDS RAE03B28 TSB04E19B21 PRESRR P0000 T02500222 RVRNO
KBTR 251412Z 18014KT 10SM TS FEW018 SCT027 BKN038 26/23 A2985 RMK AO2 LTG DSNT ALQDS RAE03 TSB04 P0000 T02610233
KBTR 251404Z 19009G20KT 10SM TS FEW018 BKN029 BKN042 26/23 A2986 RMK AO2 LTG DSNT ALQDS RAE03 TSB04 P0000 T02610233
KBTR 251353Z 16010G18KT 10SM -RA FEW018 SCT025 BKN060 27/24 A2986 RMK AO2 LTG DSNT SW-NW RAB53 SLP111 P0000 T02670239
KBTR 251327Z 17011G22KT 10SM FEW012 BKN018 OVC038 27/24 A2986 RMK AO2 LTG DSNT W AND NW T02670239
KBTR 251300Z VRB06KT 10SM BKN013 OVC019 26/24 A2985 RMK AO2 LTG DSNT W T02610244
KBTR 251253Z 16007KT 10SM BKN008 OVC021 26/24 A2985 RMK AO2 LTG DSNT W SLP105 T02610244
KBTR 251218Z 16006KT 9SM BKN008 OVC021 26/24 A2986 RMK AO2 T02560244
KBTR 251153Z 15006KT 8SM BKN012 BKN019 25/24 A2986 RMK AO2 SLP109 60000 70010 T02500239 10250 20211 53014
KBTR 251127Z AUTO 16005KT 8SM BKN010 24/24 A2985 RMK AO2 T02440239
KBTR 251053Z AUTO 13005KT 9SM CLR 24/24 A2983 RMK AO2 SLP100 T02440239
KBTR 250953Z AUTO 14008KT 9SM FEW100 FEW120 25/24 A2982 RMK AO2 RAB34E47 SLP098 P0000 T02500239
KBTR 250853Z AUTO 12008KT 9SM BKN120 24/23 A2981 RMK AO2 SLP095 60000 T02390233 58011
KBTR 250753Z AUTO 11005KT 9SM FEW080 SCT095 23/22 A2983 RMK AO2 SLP100 T02330222
KBTR 250750Z AUTO 12006KT 9SM SCT080 SCT095 23/22 A2983 RMK AO2
KBTR 250653Z 10007KT 10SM VCTS SCT080 BKN120 22/21 A2985 RMK AO2 RAE03 SLP106 P0000 T02220211
KBTR 250553Z 05003KT 10SM VCTS -RA FEW075 21/21 A2986 RMK AO2 RAE0454B51 SLP109 P0000 60006 T02110206 10278 20211 403170211 58008
KBTR 250453Z 07003KT 10SM VCTS -RA FEW038 FEW050 21/21 A2986 RMK AO2 RAB43 SLP112 P0000 T02110206
KBTR 250418Z 07005KT 10SM VCTS SCT021 SCT027 BKN040 22/21 A2988 RMK AO2 LTG DSNT NE T02170206
KBTR 250353Z 01006KT 10SM VCTS BKN021 BKN028 22/21 A2988 RMK AO2 LTG DSNT NE AND NW RAE10 SLP118 P0003 T02170206
KBTR 250348Z VRB04KT 10SM VCTS SCT022 BKN027 BKN034 22/21 A2988 RMK AO2 LTG DSNT NE AND NW RAE10 P0003
KBTR 250308Z 04005KT 10SM VCTS -RA SCT025 SCT047 BKN075 22/20 A2987 RMK AO2 LTG DSNT ALQDS P0003 T02170200
KBTR 250253Z 02004KT 6SM VCTS +RA BR SCT021 BKN027 OVC034 22/20 A2988 RMK AO2 LTG DSNT ALQDS RAB41 SLP118 P0000 60003 T02170200 53025
KBTR 250224Z 33009KT 10SM VCTS BKN017 BKN023 BKN110 23/21 A2986 RMK AO2 LTG DSNT ALQDS T02280206
KBTR 250153Z 11004KT 10SM VCTS SCT041 BKN065 BKN080 23/22 A2985 RMK AO2 LTG DSNT ALQDS RAB09E32 SLP106 P0003 T02330217
KBTR 250053Z 20009KT 10SM VCTS SCT028 BKN038 BKN045 28/23 A2982 RMK AO2 LTG DSNT N AND NW SLP098 T02780228
KBTR 242353Z 10005KT 10SM VCTS SCT028 BKN036 BKN044 28/23 A2981 RMK AO2 LTG DSNT SW-N SLP093 60004 T02780233 10317 20239 56009
KBTR 242253Z 12005KT 10SM FEW031 FEW043 28/23 A2981 RMK AO2 LTG DSNT NW SLP094 T02830228
KBTR 242153Z 12008KT 10SM VCTS SCT035 SCT070 BKN095 26/21 A2982 RMK AO2 PK WND 18026/2116 WSHFT 2126 LTG DSNT ALQDS RAE35 TSB15E42 SLP096 P0002 T02610211
KBTR 242142Z 12011KT 10SM VCTS FEW050 FEW070 SCT095 26/21 A2983 RMK AO2 PK WND 18026/2116 WSHFT 2126 LTG DSNT NW-NE RAE35 TSB15E42 P0002 T02560211
KBTR 242121Z AUTO 18016G26KT 6SM -TSRA FEW048 SCT075 BKN090 24/20 A2983 RMK AO2 PK WND 18026/2116 LTG DSNT ALQDS TSB15 P0001 T02440200
KBTR 242100Z 17012KT 6SM VCTS -RA SCT038 BKN050 BKN110 27/22 A2984 RMK AO2 LTG DSNT ALQDS P0001 T02720222
KBTR 242053Z 18011G31KT 2 1/2SM +RA FEW035 SCT044 BKN075 26/21 A2984 RMK AO2 PK WND 19031/2045 LTG DSNT ALQDS RAB44 SLP103 P0002 60002 T02560211 56015
KBTR 241953Z 18012G20KT 10SM FEW041 SCT050 31/22 A2984 RMK AO2 LTG DSNT N SLP105 T03110222
KBTR 241853Z 19013G21KT 10SM BKN038 BKN050 31/22 A2986 RMK AO2 LTG DSNT NE SLP112 T03060217
KBTR 241753Z 19013KT 10SM FEW037 31/22 A2988 RMK AO2 LTG DSNT E SLP117 T03060222 10311 20217 58014
KBTR 241653Z 18018G23KT 10SM FEW033 31/23 A2990 RMK AO2 SLP124 T03060228
KBTR 241553Z 18016G21KT 10SM FEW029 SCT035 28/22 A2991 RMK AO2 SLP127 T02830222
KBTR 241453Z 17016G19KT 10SM FEW021 SCT026 28/22 A2992 RMK AO2 SLP131 T02780222 53006
KBTR 241353Z 16010KT 10SM FEW017 26/23 A2992 RMK AO2 SLP131 T02610228
KBTR 241253Z 13007KT 10SM CLR 24/22 A2990 RMK AO2 SLP122 T02390217
KBTR 241153Z 14005KT 10SM FEW110 22/21 A2990 RMK AO2 SLP125 70030 T02170206 10217 20217 55001
KBTR 241053Z AUTO 13005KT 10SM CLR 22/21 A2990 RMK AO2 SLP124 T02170206
KBTR 241005Z AUTO 11007KT 10SM FEW008 SCT023 BKN033 22/21 A2990 RMK AO2 T02170206
KBTR 240953Z AUTO 10008KT 10SM FEW010 BKN025 BKN032 22/21 A2990 RMK AO2 SLP123 T02170206
KBTR 240913Z AUTO 09007KT 10SM SCT004 BKN095 22/21 A2991 RMK AO2 T02170211
KBTR 240900Z AUTO 10006KT 10SM BKN004 OVC090 22/21 A2991 RMK AO2 T02170211
KBTR 240853Z AUTO 08006KT 10SM SCT004 OVC090 22/21 A2991 RMK AO2 SLP126 T02170211 56014